createdAt,value
2018-07-04T00:02:27.666Z,80.46
2018-07-04T00:07:39.021Z,79.67
2018-07-04T00:12:50.179Z,80.56
2018-07-04T00:18:01.438Z,80.83
2018-07-04T00:23:12.787Z,81.13
2018-07-04T00:28:24.182Z,81.34
2018-07-04T00:33:35.522Z,82.04
2018-07-04T00:38:46.748Z,81.96
2018-07-04T00:43:57.876Z,81.65
2018-07-04T00:49:09.131Z,81.75
2018-07-04T00:54:20.363Z,81.72
2018-07-04T00:59:31.757Z,81.96
2018-07-04T01:04:43.094Z,81.44
2018-07-04T01:09:54.296Z,82.18
2018-07-04T01:15:05.539Z,81.79
2018-07-04T01:20:16.696Z,81.92
2018-07-04T01:25:27.948Z,82.87
2018-07-04T01:30:39.047Z,82.51
2018-07-04T01:35:50.285Z,82.99
2018-07-04T01:41:01.428Z,82.67
2018-07-04T01:46:12.668Z,82.22
2018-07-04T01:51:23.887Z,83.07
2018-07-04T01:56:35.112Z,82.59
2018-07-04T02:01:46.324Z,83.19
2018-07-04T02:06:57.700Z,83.31
2018-07-04T02:12:08.874Z,83.26
2018-07-04T02:17:20.044Z,83.47
2018-07-04T02:22:31.227Z,83.48
2018-07-04T02:27:42.644Z,82.92
2018-07-04T02:32:53.723Z,83.38
2018-07-04T02:38:04.957Z,83.37
2018-07-04T02:43:16.078Z,83.98
2018-07-04T02:48:27.376Z,83.58
2018-07-04T02:53:38.763Z,83.21
2018-07-04T02:58:50.159Z,83.94
2018-07-04T03:04:01.488Z,83.69
2018-07-04T03:09:12.643Z,83.48
2018-07-04T03:14:24.098Z,83.99
2018-07-04T03:19:35.346Z,83.72
2018-07-04T03:24:46.607Z,83.94
2018-07-04T03:29:51.984Z,83.25
2018-07-04T03:35:03.304Z,82.92
2018-07-04T03:40:14.459Z,83.29
2018-07-04T03:45:25.706Z,83.87
2018-07-04T03:50:36.920Z,84.41
2018-07-04T03:55:48.032Z,83.76
2018-07-04T04:00:59.311Z,83.37
2018-07-04T04:06:10.448Z,83.51
2018-07-04T04:11:21.639Z,83.73
2018-07-04T04:16:32.908Z,82.98
2018-07-04T04:21:44.219Z,83.54
2018-07-04T04:26:55.491Z,83.45
2018-07-04T04:32:06.735Z,82.35
2018-07-04T04:37:18.048Z,82.17
2018-07-04T04:42:29.440Z,81.80
2018-07-04T04:47:40.876Z,80.99
2018-07-04T04:52:52.090Z,79.77
2018-07-04T04:58:03.237Z,78.04
2018-07-04T05:03:14.627Z,77.22
2018-07-04T05:08:25.966Z,78.59
2018-07-04T05:13:37.246Z,80.44
2018-07-04T05:18:48.552Z,81.34
2018-07-04T05:23:59.676Z,80.35
2018-07-04T05:29:10.994Z,79.61
2018-07-04T05:34:22.253Z,79.84
2018-07-04T05:39:33.479Z,79.36
2018-07-04T05:44:44.717Z,79.42
2018-07-04T05:49:56.006Z,78.67
2018-07-04T05:55:07.443Z,77.61
2018-07-04T06:00:18.889Z,77.85
2018-07-04T06:05:30.060Z,78.06
2018-07-04T06:10:41.426Z,77.89
2018-07-04T06:15:52.644Z,78.11
2018-07-04T06:21:04.077Z,76.18
2018-07-04T06:26:15.176Z,75.71
2018-07-04T06:31:26.366Z,75.82
2018-07-04T06:36:37.697Z,74.53
2018-07-04T06:41:30.508Z,72.29
2018-07-04T06:46:23.364Z,70.71
2018-07-04T06:51:16.181Z,70.92
2018-07-04T06:56:08.997Z,72.39
2018-07-04T07:01:01.804Z,72.07
2018-07-04T07:06:13.124Z,71.09
2018-07-04T07:11:24.252Z,69.89
2018-07-04T07:16:35.592Z,67.54
2018-07-04T07:21:46.683Z,66.68
2018-07-04T07:26:57.938Z,63.16
2018-07-04T07:32:09.171Z,63.48
2018-07-04T07:37:20.288Z,61.96
2018-07-04T07:42:31.599Z,60.27
2018-07-04T07:47:42.699Z,62.57
2018-07-04T07:52:53.822Z,59.72
2018-07-04T07:58:04.992Z,60.08
2018-07-04T08:03:16.183Z,58.73
2018-07-04T08:08:27.569Z,57.48
2018-07-04T08:13:38.886Z,55.19
2018-07-04T08:18:50.054Z,56.94
2018-07-04T08:24:01.239Z,55.13
2018-07-04T08:29:12.492Z,55.80
2018-07-04T08:34:23.727Z,58.44
2018-07-04T08:39:34.984Z,58.04
2018-07-04T08:44:46.170Z,53.81
2018-07-04T08:49:57.463Z,53.58
2018-07-04T08:55:08.700Z,53.11
2018-07-04T09:00:20.081Z,53.40
2018-07-04T09:05:31.428Z,54.54
2018-07-04T09:10:42.613Z,53.63
2018-07-04T09:15:53.827Z,51.59
2018-07-04T09:21:05.140Z,50.36
2018-07-04T09:26:16.353Z,49.63
2018-07-04T09:31:27.624Z,48.11
2018-07-04T09:36:38.711Z,51.09
2018-07-04T09:41:50.022Z,51.32
2018-07-04T09:47:01.115Z,49.69
2018-07-04T09:52:12.308Z,50.13
2018-07-04T09:57:23.600Z,50.83
2018-07-04T10:02:34.864Z,53.40
2018-07-04T10:07:46.079Z,55.74
2018-07-04T10:12:57.456Z,57.14
2018-07-04T10:18:08.799Z,57.91
2018-07-04T10:23:20.112Z,59.51
2018-07-04T10:28:31.229Z,58.71
2018-07-04T10:33:42.547Z,58.43
2018-07-04T10:38:53.787Z,57.85
2018-07-04T10:44:05.076Z,56.90
2018-07-04T10:49:16.520Z,59.14
2018-07-04T10:54:27.777Z,56.17
2018-07-04T10:59:38.983Z,56.26
2018-07-04T11:04:50.381Z,58.85
2018-07-04T11:10:01.754Z,59.84
2018-07-04T11:15:13.019Z,64.12
2018-07-04T11:20:24.374Z,64.57
2018-07-04T11:25:35.757Z,66.20
2018-07-04T11:30:47.010Z,65.77
2018-07-04T11:35:58.247Z,62.96
2018-07-04T11:41:09.598Z,63.93
2018-07-04T11:46:02.431Z,64.72
2018-07-04T11:50:56.048Z,61.21
2018-07-04T11:55:48.879Z,63.86
2018-07-04T12:00:41.693Z,58.97
2018-07-04T12:05:52.945Z,56.64
2018-07-04T12:10:46.196Z,54.96
2018-07-04T12:15:39.044Z,54.71
2018-07-04T12:20:31.844Z,52.61
2018-07-04T12:25:24.684Z,52.27
2018-07-04T12:30:17.516Z,52.84
2018-07-04T12:35:10.324Z,53.67
2018-07-04T12:40:03.143Z,52.79
2018-07-04T12:44:55.994Z,51.15
2018-07-04T12:49:48.809Z,50.68
2018-07-04T12:54:46.990Z,53.90
2018-07-04T12:59:58.117Z,55.13
2018-07-04T13:05:09.355Z,55.94
2018-07-04T13:10:20.630Z,52.53
2018-07-04T13:15:32.024Z,51.43
2018-07-04T13:20:43.406Z,52.97
2018-07-04T13:25:54.774Z,55.15
2018-07-04T13:31:00.042Z,53.93
2018-07-04T13:36:11.381Z,54.61
2018-07-04T13:41:22.591Z,56.91
2018-07-04T13:46:34.013Z,58.63
2018-07-04T13:51:45.251Z,57.80
2018-07-04T13:56:56.602Z,55.22
2018-07-04T14:02:07.975Z,56.97
2018-07-04T14:07:19.265Z,56.31
2018-07-04T14:12:30.490Z,56.80
2018-07-04T14:17:41.755Z,55.00
2018-07-04T14:22:53.077Z,55.13
2018-07-04T14:28:04.370Z,54.12
2018-07-04T14:33:15.496Z,54.80
2018-07-04T14:38:26.755Z,55.52
2018-07-04T14:43:38.135Z,52.33
2018-07-04T14:48:49.470Z,48.11
2018-07-04T14:54:00.783Z,50.39
2018-07-04T14:59:12.102Z,51.88
2018-07-04T15:04:23.531Z,51.16
2018-07-04T15:09:34.520Z,50.12
2018-07-04T15:14:45.840Z,50.48
2018-07-04T15:19:57.106Z,54.30
2018-07-04T15:25:08.243Z,52.27
2018-07-04T15:30:19.608Z,53.25
2018-07-04T15:35:31.365Z,53.79
2018-07-04T15:40:42.752Z,53.52
2018-07-04T15:45:54.112Z,53.37
2018-07-04T15:51:05.521Z,53.80
2018-07-04T15:56:16.844Z,52.15
2018-07-04T16:01:28.164Z,52.59
2018-07-04T16:06:39.695Z,50.63
2018-07-04T16:11:51.175Z,49.85
2018-07-04T16:17:02.553Z,51.07
2018-07-04T16:22:13.931Z,49.92
2018-07-04T16:27:25.449Z,51.13
2018-07-04T16:32:36.762Z,51.27
2018-07-04T16:37:48.066Z,49.85
2018-07-04T16:42:59.398Z,48.52
2018-07-04T16:48:10.665Z,51.56
2018-07-04T16:53:22.081Z,50.50
2018-07-04T16:58:33.448Z,50.22
2018-07-04T17:03:44.637Z,51.38
2018-07-04T17:08:55.698Z,52.30
2018-07-04T17:14:07.004Z,48.92
2018-07-04T17:19:18.357Z,47.71
2018-07-04T17:24:29.621Z,46.63
2018-07-04T17:29:40.898Z,49.01
2018-07-04T17:34:52.088Z,49.40
2018-07-04T17:40:03.473Z,45.88
2018-07-04T17:45:14.757Z,46.83
2018-07-04T17:50:27.560Z,47.25
2018-07-04T17:55:38.881Z,48.34
2018-07-04T18:00:50.182Z,49.68
2018-07-04T18:06:01.549Z,50.76
2018-07-04T18:11:06.967Z,51.52
2018-07-04T18:16:18.205Z,53.69
2018-07-04T18:21:29.416Z,53.34
2018-07-04T18:26:40.706Z,52.49
2018-07-04T18:31:52.096Z,51.71
2018-07-04T18:37:03.317Z,52.70
2018-07-04T18:42:14.729Z,53.87
2018-07-04T18:47:26.057Z,53.80
2018-07-04T18:52:37.289Z,57.47
2018-07-04T18:57:48.558Z,57.84
2018-07-04T19:02:59.857Z,56.51
2018-07-04T19:08:11.156Z,57.75
2018-07-04T19:13:22.748Z,58.17
2018-07-04T19:18:34.109Z,60.29
2018-07-04T19:23:45.236Z,59.19
2018-07-04T19:28:56.324Z,59.83
2018-07-04T19:34:07.499Z,61.29
2018-07-04T19:39:18.689Z,63.11
2018-07-04T19:44:30.014Z,63.71
2018-07-04T19:49:41.226Z,63.47
2018-07-04T19:54:52.409Z,65.01
2018-07-04T20:00:03.689Z,65.44
2018-07-04T20:05:15.116Z,65.03
2018-07-04T20:10:26.604Z,65.45
2018-07-04T20:15:37.851Z,65.00
2018-07-04T20:20:49.098Z,65.77
2018-07-04T20:26:00.491Z,65.43
2018-07-04T20:31:11.831Z,65.11
2018-07-04T20:36:23.088Z,66.27
2018-07-04T20:41:34.409Z,67.35
2018-07-04T20:46:45.731Z,68.61
2018-07-04T20:51:57.120Z,66.79
2018-07-04T20:57:08.364Z,67.36
2018-07-04T21:02:19.827Z,67.23
2018-07-04T21:07:30.935Z,67.57
2018-07-04T21:12:42.173Z,68.20
2018-07-04T21:17:47.597Z,68.67
2018-07-04T21:22:58.853Z,68.64
2018-07-04T21:28:10.252Z,68.87
2018-07-04T21:33:21.591Z,68.42
2018-07-04T21:38:32.920Z,68.37
2018-07-04T21:43:44.654Z,68.79
2018-07-04T21:48:56.044Z,68.35
2018-07-04T21:54:07.401Z,68.34
2018-07-04T21:59:18.747Z,67.89
2018-07-04T22:04:29.962Z,70.07
2018-07-04T22:09:41.231Z,70.35
2018-07-04T22:14:52.592Z,69.51
2018-07-04T22:20:03.953Z,71.07
2018-07-04T22:25:15.268Z,70.30
2018-07-04T22:30:26.440Z,70.17
2018-07-04T22:35:37.580Z,70.41
2018-07-04T22:40:48.837Z,71.71
2018-07-04T22:46:00.124Z,71.21
2018-07-04T22:51:11.371Z,71.01
2018-07-04T22:56:22.697Z,72.06
2018-07-04T23:01:33.792Z,71.72
2018-07-04T23:06:44.931Z,73.29
2018-07-04T23:11:56.135Z,72.19
2018-07-04T23:17:07.376Z,73.03
2018-07-04T23:22:18.680Z,73.36
2018-07-04T23:27:29.904Z,72.08
2018-07-04T23:32:35.169Z,74.57
2018-07-04T23:37:47.151Z,73.54
2018-07-04T23:42:58.455Z,73.81
2018-07-04T23:48:09.652Z,74.02
2018-07-04T23:53:20.949Z,73.75
2018-07-04T23:58:32.434Z,74.75
